createdAt,value
2023-04-20T00:00:50.463Z,25.86
2023-04-20T00:01:50.501Z,25.88
2023-04-20T00:02:50.634Z,25.88
2023-04-20T00:03:50.652Z,25.86
2023-04-20T00:04:50.613Z,25.88
2023-04-20T00:05:50.584Z,25.85
2023-04-20T00:06:50.613Z,25.85
2023-04-20T00:07:50.608Z,25.83
2023-04-20T00:08:50.617Z,25.83
2023-04-20T00:09:50.619Z,25.80
2023-04-20T00:10:50.702Z,25.83
2023-04-20T00:11:50.665Z,25.82
2023-04-20T00:12:50.682Z,25.83
2023-04-20T00:13:50.666Z,25.80
2023-04-20T00:14:50.677Z,25.83
2023-04-20T00:15:50.679Z,25.80
2023-04-20T00:16:50.705Z,25.80
2023-04-20T00:17:50.726Z,25.80
2023-04-20T00:18:50.651Z,25.80
2023-04-20T00:19:50.654Z,25.80
2023-04-20T00:20:50.654Z,25.80
2023-04-20T00:21:50.699Z,25.79
2023-04-20T00:22:50.693Z,25.79
2023-04-20T00:23:50.723Z,25.80
2023-04-20T00:24:50.710Z,25.78
2023-04-20T00:25:50.744Z,25.80
2023-04-20T00:26:50.785Z,25.80
2023-04-20T00:27:50.785Z,25.79
2023-04-20T00:28:50.809Z,25.80
2023-04-20T00:29:50.786Z,25.79
2023-04-20T00:30:50.832Z,25.78
2023-04-20T00:31:50.800Z,25.78
2023-04-20T00:32:50.815Z,25.78
2023-04-20T00:33:50.781Z,25.79
2023-04-20T00:34:50.780Z,25.80
2023-04-20T00:35:50.785Z,25.80
2023-04-20T00:36:50.775Z,25.79
2023-04-20T00:37:50.769Z,25.79
2023-04-20T00:38:50.793Z,25.82
2023-04-20T00:39:50.776Z,25.79
2023-04-20T00:40:50.770Z,25.82
2023-04-20T00:41:50.787Z,25.79
2023-04-20T00:42:50.798Z,25.82
2023-04-20T00:43:50.757Z,25.79
2023-04-20T00:44:50.755Z,25.82
2023-04-20T00:45:50.813Z,25.80
2023-04-20T00:46:50.756Z,25.79
2023-04-20T00:47:50.781Z,25.80
2023-04-20T00:48:50.741Z,25.80
2023-04-20T00:49:50.736Z,25.79
2023-04-20T00:50:50.743Z,25.82
2023-04-20T00:51:50.725Z,25.79
2023-04-20T00:52:50.723Z,25.78
2023-04-20T00:53:50.722Z,25.78
2023-04-20T00:54:50.714Z,25.80
2023-04-20T00:55:50.716Z,25.78
2023-04-20T00:56:50.716Z,25.80
2023-04-20T00:57:50.699Z,25.82
2023-04-20T00:58:50.733Z,25.80
2023-04-20T00:59:50.696Z,25.79
2023-04-20T01:00:50.683Z,25.80
2023-04-20T01:01:50.741Z,25.80
2023-04-20T01:02:50.905Z,25.80
2023-04-20T01:03:50.742Z,25.82
2023-04-20T01:04:50.670Z,25.80
2023-04-20T01:05:50.668Z,25.82
2023-04-20T01:06:50.700Z,25.76
2023-04-20T01:07:50.655Z,25.80
2023-04-20T01:08:50.691Z,25.79
2023-04-20T01:09:50.652Z,25.82
2023-04-20T01:10:50.642Z,25.80
2023-04-20T01:11:50.653Z,25.82
2023-04-20T01:12:50.647Z,25.79
2023-04-20T01:13:50.630Z,25.79
2023-04-20T01:14:50.665Z,25.79
2023-04-20T01:15:50.693Z,25.82
2023-04-20T01:16:50.608Z,25.79
2023-04-20T01:17:50.656Z,25.80
2023-04-20T01:18:50.599Z,25.79
2023-04-20T01:19:50.586Z,25.80
2023-04-20T01:20:50.584Z,25.79
2023-04-20T01:21:50.582Z,25.80
2023-04-20T01:22:50.567Z,25.80
2023-04-20T01:23:50.562Z,25.79
2023-04-20T01:24:50.559Z,25.79
2023-04-20T01:25:50.545Z,25.79
2023-04-20T01:26:50.546Z,25.79
2023-04-20T01:27:50.566Z,25.80
2023-04-20T01:28:50.577Z,25.78
2023-04-20T01:29:50.562Z,25.78
2023-04-20T01:30:50.599Z,25.80
2023-04-20T01:31:50.639Z,25.80
2023-04-20T01:32:50.578Z,25.79
2023-04-20T01:33:50.564Z,25.79
2023-04-20T01:34:50.553Z,25.78
2023-04-20T01:35:50.551Z,25.79
2023-04-20T01:36:50.550Z,25.80
2023-04-20T01:37:50.533Z,25.80
2023-04-20T01:38:50.525Z,25.78
2023-04-20T01:39:50.627Z,25.79
2023-04-20T01:40:50.504Z,25.79
2023-04-20T01:41:50.491Z,25.79
2023-04-20T01:42:50.489Z,25.80
2023-04-20T01:43:50.483Z,25.82
2023-04-20T01:44:50.479Z,25.80
2023-04-20T01:45:50.470Z,25.80
2023-04-20T01:46:50.504Z,25.82
2023-04-20T01:47:50.512Z,25.82
2023-04-20T01:48:50.451Z,25.80
2023-04-20T01:49:50.455Z,25.82
2023-04-20T01:50:50.452Z,25.79
2023-04-20T01:51:50.466Z,25.80
2023-04-20T01:52:50.438Z,25.80
2023-04-20T01:53:50.428Z,25.80
2023-04-20T01:54:50.433Z,25.79
2023-04-20T01:55:50.434Z,25.79
2023-04-20T01:56:50.420Z,25.79
2023-04-20T01:57:50.420Z,25.82
2023-04-20T01:58:50.416Z,25.82
2023-04-20T01:59:50.403Z,25.79
2023-04-20T02:00:50.474Z,25.79
2023-04-20T02:01:50.464Z,25.80
2023-04-20T02:02:50.531Z,25.80
2023-04-20T02:03:50.765Z,25.79
2023-04-20T02:04:50.420Z,25.78
2023-04-20T02:05:50.385Z,25.80
2023-04-20T02:06:50.408Z,25.80
2023-04-20T02:07:50.366Z,25.78
2023-04-20T02:08:50.365Z,25.80
2023-04-20T02:09:50.379Z,25.80
2023-04-20T02:10:50.359Z,25.80
2023-04-20T02:11:50.365Z,25.78
2023-04-20T02:12:50.355Z,25.83
2023-04-20T02:13:50.345Z,25.79
2023-04-20T02:14:50.344Z,25.79
2023-04-20T02:15:50.347Z,25.82
2023-04-20T02:16:50.386Z,25.80
2023-04-20T02:17:50.434Z,25.82
2023-04-20T02:18:50.340Z,25.82
2023-04-20T02:19:50.317Z,25.80
2023-04-20T02:20:50.332Z,25.80
2023-04-20T02:21:50.307Z,25.79
2023-04-20T02:22:50.308Z,25.80
2023-04-20T02:23:50.291Z,25.80
2023-04-20T02:24:50.276Z,25.80
2023-04-20T02:25:50.274Z,25.79
2023-04-20T02:26:50.283Z,25.79
2023-04-20T02:27:50.263Z,25.78
2023-04-20T02:28:50.261Z,25.79
2023-04-20T02:29:50.261Z,25.78
2023-04-20T02:30:50.315Z,25.79
2023-04-20T02:31:50.245Z,25.79
2023-04-20T02:32:50.261Z,25.80
2023-04-20T02:33:50.227Z,25.79
2023-04-20T02:34:50.256Z,25.79
2023-04-20T02:35:50.220Z,25.79
2023-04-20T02:36:50.210Z,25.79
2023-04-20T02:37:50.204Z,25.82
2023-04-20T02:38:50.198Z,25.79
2023-04-20T02:39:50.192Z,25.80
2023-04-20T02:40:50.185Z,25.80
2023-04-20T02:41:50.170Z,25.79
2023-04-20T02:42:50.170Z,25.78
2023-04-20T02:43:50.156Z,25.80
2023-04-20T02:44:50.144Z,25.82
2023-04-20T02:45:50.138Z,25.79
2023-04-20T02:46:50.212Z,25.80
2023-04-20T02:47:50.162Z,25.80
2023-04-20T02:48:50.120Z,25.82
2023-04-20T02:49:50.128Z,25.80
2023-04-20T02:50:50.141Z,25.82
2023-04-20T02:51:50.124Z,25.82
2023-04-20T02:52:50.158Z,25.79
2023-04-20T02:53:50.186Z,25.79
2023-04-20T02:54:50.196Z,25.80
2023-04-20T02:55:50.177Z,25.80
2023-04-20T02:56:50.172Z,25.80
2023-04-20T02:57:50.177Z,25.78
2023-04-20T02:58:50.150Z,25.80
2023-04-20T02:59:50.148Z,25.79
2023-04-20T03:00:50.138Z,25.79
2023-04-20T03:01:50.209Z,25.80
2023-04-20T03:02:50.233Z,25.79
2023-04-20T03:03:50.264Z,25.79
2023-04-20T03:04:50.151Z,25.80
2023-04-20T03:05:50.133Z,25.76
2023-04-20T03:06:50.169Z,25.79
2023-04-20T03:07:50.150Z,25.78
2023-04-20T03:08:50.153Z,25.78
2023-04-20T03:09:50.159Z,25.75
2023-04-20T03:10:50.140Z,25.80
2023-04-20T03:11:50.176Z,25.78
2023-04-20T03:12:50.178Z,25.78
2023-04-20T03:13:50.174Z,25.79
2023-04-20T03:14:50.177Z,25.79
2023-04-20T03:15:50.170Z,25.79
2023-04-20T03:16:50.322Z,25.79
2023-04-20T03:17:50.286Z,25.78
2023-04-20T03:18:50.216Z,25.83
2023-04-20T03:19:50.243Z,25.76
2023-04-20T03:20:50.283Z,25.80
2023-04-20T03:21:50.263Z,25.79
2023-04-20T03:22:50.303Z,25.78
2023-04-20T03:23:50.258Z,25.79
2023-04-20T03:24:51.977Z,25.79
2023-04-20T03:25:50.240Z,25.79
2023-04-20T03:26:50.217Z,25.78
2023-04-20T03:27:50.209Z,25.78
2023-04-20T03:28:50.187Z,25.78
2023-04-20T03:29:50.158Z,25.79
2023-04-20T03:30:50.143Z,25.76
2023-04-20T03:31:50.173Z,25.80
2023-04-20T03:32:50.142Z,25.79
2023-04-20T03:33:50.116Z,25.76
2023-04-20T03:34:50.108Z,25.79
2023-04-20T03:35:50.098Z,25.78
2023-04-20T03:36:50.085Z,25.79
2023-04-20T03:37:50.079Z,25.79
2023-04-20T03:38:50.105Z,25.79
2023-04-20T03:39:50.067Z,25.79
2023-04-20T03:40:50.050Z,25.78
2023-04-20T03:41:50.051Z,25.78
2023-04-20T03:42:50.038Z,25.80
2023-04-20T03:43:50.037Z,25.79
2023-04-20T03:44:50.036Z,25.79
2023-04-20T03:45:50.097Z,25.78
2023-04-20T03:46:50.043Z,25.78
2023-04-20T03:47:50.175Z,25.76
2023-04-20T03:48:50.038Z,25.76
2023-04-20T03:49:50.030Z,25.79
2023-04-20T03:50:50.019Z,25.76
2023-04-20T03:51:49.994Z,25.75
2023-04-20T03:52:49.995Z,25.78
2023-04-20T03:53:49.991Z,25.79
2023-04-20T03:54:50.006Z,25.78
2023-04-20T03:55:49.979Z,25.78
2023-04-20T03:56:49.976Z,25.80
2023-04-20T03:57:49.975Z,25.79
2023-04-20T03:58:49.969Z,25.79
2023-04-20T03:59:49.962Z,25.78
2023-04-20T04:00:49.971Z,25.79
2023-04-20T04:01:50.038Z,25.79
2023-04-20T04:02:50.163Z,25.79
2023-04-20T04:03:50.214Z,25.78
2023-04-20T04:04:50.038Z,25.79
2023-04-20T04:05:49.971Z,25.78
2023-04-20T04:06:49.947Z,25.80
2023-04-20T04:07:49.953Z,25.80
2023-04-20T04:08:49.955Z,25.78
2023-04-20T04:09:49.961Z,25.79
2023-04-20T04:10:49.989Z,25.79
2023-04-20T04:11:49.972Z,25.82
2023-04-20T04:12:49.945Z,25.79
2023-04-20T04:13:49.945Z,25.79
2023-04-20T04:14:49.932Z,25.80
2023-04-20T04:15:49.937Z,25.82
2023-04-20T04:16:49.996Z,25.79
2023-04-20T04:17:49.941Z,25.78
2023-04-20T04:18:49.912Z,25.80
2023-04-20T04:19:49.898Z,25.82
2023-04-20T04:20:49.910Z,25.80
2023-04-20T04:21:49.881Z,25.79
2023-04-20T04:22:49.873Z,25.82
2023-04-20T04:23:49.850Z,25.78
2023-04-20T04:24:49.860Z,25.82
2023-04-20T04:25:49.850Z,25.79
2023-04-20T04:26:49.930Z,25.80
2023-04-20T04:27:49.847Z,25.79
2023-04-20T04:28:49.827Z,25.80
2023-04-20T04:29:49.833Z,25.80
2023-04-20T04:30:49.806Z,25.79
2023-04-20T04:31:49.889Z,25.80
2023-04-20T04:32:49.809Z,25.78
2023-04-20T04:33:49.911Z,25.83
2023-04-20T04:34:49.737Z,25.82
2023-04-20T04:35:49.761Z,25.80
2023-04-20T04:36:49.735Z,25.80
2023-04-20T04:37:49.686Z,25.80
2023-04-20T04:38:49.666Z,25.80
2023-04-20T04:39:49.658Z,25.80
2023-04-20T04:40:49.648Z,25.80
2023-04-20T04:41:49.647Z,25.80
2023-04-20T04:42:49.684Z,25.79
2023-04-20T04:43:49.648Z,25.80
2023-04-20T04:44:49.631Z,25.80
2023-04-20T04:45:49.631Z,25.80
2023-04-20T04:46:49.722Z,25.82
2023-04-20T04:47:49.648Z,25.83
2023-04-20T04:48:49.626Z,25.80
2023-04-20T04:49:49.620Z,25.79
2023-04-20T04:50:49.610Z,25.82
2023-04-20T04:51:49.616Z,25.80
2023-04-20T04:52:49.638Z,25.83
2023-04-20T04:53:49.727Z,25.80
2023-04-20T04:54:49.698Z,25.80
2023-04-20T04:55:49.697Z,25.83
2023-04-20T04:56:49.726Z,25.80
2023-04-20T04:57:49.732Z,25.82
2023-04-20T04:58:49.747Z,25.82
2023-04-20T04:59:49.718Z,25.82
2023-04-20T05:00:49.734Z,25.79
2023-04-20T05:01:49.775Z,25.82
2023-04-20T05:02:49.930Z,25.82
2023-04-20T05:03:49.938Z,25.80
2023-04-20T05:04:49.853Z,25.79
2023-04-20T05:05:49.821Z,25.80
2023-04-20T05:06:49.832Z,25.82
2023-04-20T05:07:49.852Z,25.82
2023-04-20T05:08:49.902Z,25.80
2023-04-20T05:09:49.843Z,25.82
2023-04-20T05:10:49.822Z,25.82
2023-04-20T05:11:49.820Z,25.82
2023-04-20T05:12:49.834Z,25.82
2023-04-20T05:13:50.015Z,25.83
2023-04-20T05:14:49.908Z,25.83
2023-04-20T05:15:49.923Z,25.83
2023-04-20T05:16:49.963Z,25.83
2023-04-20T05:17:50.085Z,25.83
2023-04-20T05:18:50.023Z,25.82
2023-04-20T05:19:50.058Z,25.82
2023-04-20T05:20:50.165Z,25.80
2023-04-20T05:21:50.128Z,25.80
2023-04-20T05:22:50.143Z,25.80
2023-04-20T05:23:50.492Z,25.85
2023-04-20T05:24:50.164Z,25.82
2023-04-20T05:25:50.151Z,25.83
2023-04-20T05:26:50.126Z,25.85
2023-04-20T05:27:50.164Z,25.83
2023-04-20T05:28:50.227Z,25.85
2023-04-20T05:29:50.268Z,25.83
2023-04-20T05:30:50.295Z,25.88
2023-04-20T05:31:50.315Z,25.86
2023-04-20T05:32:52.001Z,25.86
2023-04-20T05:33:50.493Z,25.88
2023-04-20T05:34:50.250Z,25.89
2023-04-20T05:35:50.495Z,25.89
2023-04-20T05:36:50.245Z,25.89
2023-04-20T05:37:50.247Z,25.92
2023-04-20T05:38:50.496Z,25.89
2023-04-20T05:39:50.234Z,25.90
2023-04-20T05:40:50.646Z,25.92
2023-04-20T05:41:50.498Z,25.92
2023-04-20T05:42:50.222Z,25.92
2023-04-20T05:43:50.206Z,25.95
2023-04-20T05:44:50.195Z,25.93
2023-04-20T05:45:50.221Z,25.95
2023-04-20T05:46:50.543Z,25.95
2023-04-20T05:47:50.197Z,25.96
2023-04-20T05:48:50.501Z,25.96
2023-04-20T05:49:50.192Z,25.97
2023-04-20T05:50:50.182Z,25.99
2023-04-20T05:51:50.197Z,25.97
2023-04-20T05:52:50.181Z,25.97
2023-04-20T05:53:50.535Z,25.93
2023-04-20T05:54:50.166Z,25.57
2023-04-20T05:55:50.313Z,25.06
2023-04-20T05:56:50.172Z,24.54
2023-04-20T05:57:50.197Z,24.22
2023-04-20T05:58:50.573Z,23.95
2023-04-20T05:59:50.820Z,23.72
2023-04-20T06:00:50.262Z,23.56
2023-04-20T06:01:53.525Z,23.32
2023-04-20T06:02:50.546Z,23.09
2023-04-20T06:03:50.688Z,22.97
2023-04-20T06:04:50.447Z,22.88
2023-04-20T06:05:50.541Z,22.84
2023-04-20T06:06:51.424Z,22.83
2023-04-20T06:07:50.564Z,22.78
2023-04-20T06:08:50.597Z,22.80
2023-04-20T06:09:50.495Z,22.80
2023-04-20T06:10:50.556Z,22.77
2023-04-20T06:11:50.603Z,22.78
2023-04-20T06:12:50.687Z,22.75
2023-04-20T06:13:51.021Z,22.74
2023-04-20T06:14:51.822Z,22.70
2023-04-20T06:15:51.090Z,22.71
2023-04-20T06:16:50.995Z,22.73
2023-04-20T06:17:51.132Z,22.67
2023-04-20T06:18:51.565Z,22.64
2023-04-20T06:19:51.310Z,22.63
2023-04-20T06:20:51.379Z,22.63
2023-04-20T06:21:51.436Z,22.64
2023-04-20T06:22:51.541Z,22.64
2023-04-20T06:23:52.042Z,22.62
2023-04-20T06:24:51.750Z,22.56
2023-04-20T06:25:51.825Z,22.52
2023-04-20T06:26:51.912Z,22.47
2023-04-20T06:27:52.970Z,22.43
2023-04-20T06:28:52.557Z,22.43
2023-04-20T06:29:52.176Z,22.45
2023-04-20T06:30:52.299Z,22.43
2023-04-20T06:31:52.348Z,22.46
2023-04-20T06:32:52.480Z,22.49
2023-04-20T06:33:54.138Z,22.47
2023-04-20T06:34:52.448Z,22.47
2023-04-20T06:35:52.478Z,22.46
2023-04-20T06:36:52.553Z,22.46
2023-04-20T06:37:52.527Z,22.46
2023-04-20T06:38:52.562Z,22.45
2023-04-20T06:39:52.613Z,22.47
2023-04-20T06:40:52.788Z,22.45
2023-04-20T06:41:53.055Z,22.46
2023-04-20T06:42:52.685Z,22.45
2023-04-20T06:43:53.045Z,22.45
2023-04-20T06:44:53.063Z,22.45
2023-04-20T06:45:52.792Z,22.43
2023-04-20T06:46:52.823Z,22.39
2023-04-20T06:47:53.922Z,22.35
2023-04-20T06:48:54.074Z,22.38
2023-04-20T06:49:53.381Z,22.39
2023-04-20T06:50:54.135Z,22.36
2023-04-20T06:52:08.676Z,22.36
2023-04-20T06:52:54.133Z,22.35
2023-04-20T06:53:56.812Z,22.35
2023-04-20T06:55:00.636Z,22.34
2023-04-20T06:55:53.198Z,22.32
2023-04-20T06:56:53.226Z,22.28
2023-04-20T06:57:53.345Z,22.28
2023-04-20T06:58:54.136Z,22.25
2023-04-20T06:59:53.431Z,22.23
2023-04-20T07:00:53.345Z,22.25
2023-04-20T07:01:53.576Z,22.22
2023-04-20T07:02:53.530Z,22.27
2023-04-20T07:03:53.640Z,22.36
2023-04-20T07:04:53.746Z,22.42
2023-04-20T07:05:53.652Z,22.53
2023-04-20T07:07:09.188Z,22.64
2023-04-20T07:07:53.549Z,22.73
2023-04-20T07:08:54.054Z,22.86
2023-04-20T07:09:53.558Z,22.97
2023-04-20T07:10:54.596Z,23.09
2023-04-20T07:11:53.618Z,23.22
2023-04-20T07:12:56.803Z,23.32
2023-04-20T07:13:54.089Z,23.43
2023-04-20T07:14:53.618Z,23.52
2023-04-20T07:16:01.124Z,23.61
2023-04-20T07:16:54.185Z,23.70
2023-04-20T07:17:53.709Z,23.81
2023-04-20T07:18:54.067Z,23.87
2023-04-20T07:19:54.068Z,23.95
2023-04-20T07:20:53.706Z,24.01
2023-04-20T07:21:53.808Z,24.08
2023-04-20T07:22:53.768Z,24.12
2023-04-20T07:23:54.132Z,24.22
2023-04-20T07:24:53.759Z,24.24
2023-04-20T07:25:53.803Z,24.30
2023-04-20T07:26:54.081Z,24.34
2023-04-20T07:27:53.821Z,24.41
2023-04-20T07:28:53.841Z,24.43
2023-04-20T07:29:53.812Z,24.47
2023-04-20T07:30:53.789Z,24.51
2023-04-20T07:31:54.106Z,24.57
2023-04-20T07:32:53.904Z,24.61
2023-04-20T07:33:54.091Z,24.64
2023-04-20T07:34:53.813Z,24.67
2023-04-20T07:35:53.799Z,24.70
2023-04-20T07:36:53.785Z,24.71
2023-04-20T07:37:53.929Z,24.74
2023-04-20T07:38:54.066Z,24.77
2023-04-20T07:39:53.797Z,24.82
2023-04-20T07:40:53.801Z,24.86
2023-04-20T07:41:53.855Z,24.90
2023-04-20T07:42:54.089Z,24.95
2023-04-20T07:43:53.974Z,25.00
2023-04-20T07:44:54.011Z,25.07
2023-04-20T07:45:54.076Z,25.13
2023-04-20T07:46:54.161Z,25.16
2023-04-20T07:47:54.626Z,25.23
2023-04-20T07:48:54.205Z,25.24
2023-04-20T07:49:54.244Z,25.27
2023-04-20T07:50:54.300Z,25.34
2023-04-20T07:52:00.819Z,25.38
2023-04-20T07:52:54.579Z,25.41
2023-04-20T07:53:54.604Z,25.47
2023-04-20T07:54:54.273Z,25.55
2023-04-20T07:55:54.285Z,25.58
2023-04-20T07:56:54.262Z,25.64
2023-04-20T07:57:54.217Z,25.65
2023-04-20T07:58:54.555Z,25.69
2023-04-20T07:59:54.203Z,25.72
2023-04-20T08:00:54.567Z,25.76
2023-04-20T08:01:57.385Z,25.80
2023-04-20T08:02:54.321Z,25.82
2023-04-20T08:03:54.784Z,25.83
2023-04-20T08:04:54.362Z,25.85
2023-04-20T08:05:54.628Z,25.89
2023-04-20T08:06:54.123Z,25.90
2023-04-20T08:07:54.732Z,25.93
2023-04-20T08:08:54.129Z,25.93
2023-04-20T08:09:54.173Z,25.99
2023-04-20T08:10:54.089Z,25.97
2023-04-20T08:11:54.064Z,26.00
2023-04-20T08:12:54.045Z,26.00
2023-04-20T08:13:55.036Z,26.00
2023-04-20T08:14:54.024Z,26.00
2023-04-20T08:15:54.068Z,26.03
2023-04-20T08:16:54.012Z,26.07
2023-04-20T08:17:54.078Z,26.07
2023-04-20T08:18:55.067Z,26.08
2023-04-20T08:19:53.958Z,26.10
2023-04-20T08:20:54.225Z,26.10
2023-04-20T08:21:53.925Z,26.08
2023-04-20T08:22:53.954Z,26.12
2023-04-20T08:23:54.072Z,26.14
2023-04-20T08:24:53.895Z,26.16
2023-04-20T08:25:53.951Z,26.17
2023-04-20T08:26:53.902Z,26.19
2023-04-20T08:27:53.944Z,26.24
2023-04-20T08:28:54.081Z,26.26
2023-04-20T08:29:54.052Z,26.27
2023-04-20T08:30:54.075Z,26.30
2023-04-20T08:31:54.224Z,26.28
2023-04-20T08:32:54.176Z,26.30
2023-04-20T08:33:54.564Z,26.32
2023-04-20T08:34:54.240Z,26.32
2023-04-20T08:35:54.311Z,26.35
2023-04-20T08:36:54.318Z,26.35
2023-04-20T08:37:54.343Z,26.34
2023-04-20T08:38:54.562Z,26.39
2023-04-20T08:39:54.437Z,26.42
2023-04-20T08:40:54.431Z,26.42
2023-04-20T08:41:54.609Z,26.44
2023-04-20T08:42:54.572Z,26.45
2023-04-20T08:43:57.780Z,26.34
2023-04-20T08:44:54.526Z,26.24
2023-04-20T08:45:54.512Z,26.17
2023-04-20T08:46:54.521Z,26.12
2023-04-20T08:47:54.596Z,26.12
2023-04-20T08:48:54.486Z,26.17
2023-04-20T08:49:54.495Z,26.13
2023-04-20T08:50:54.464Z,26.17
2023-04-20T08:51:54.459Z,26.20
2023-04-20T08:52:54.583Z,26.23
2023-04-20T08:53:54.572Z,26.23
2023-04-20T08:54:57.352Z,26.28
2023-04-20T08:55:54.394Z,26.31
2023-04-20T08:56:54.379Z,26.30
2023-04-20T08:57:54.556Z,26.35
2023-04-20T08:58:54.572Z,26.35
2023-04-20T08:59:54.598Z,26.37
2023-04-20T09:00:54.313Z,26.41
2023-04-20T09:01:54.341Z,26.42
2023-04-20T09:02:54.685Z,26.38
2023-04-20T09:03:54.532Z,26.32
2023-04-20T09:04:54.726Z,26.24
2023-04-20T09:05:54.233Z,26.17
2023-04-20T09:06:54.236Z,26.08
2023-04-20T09:07:54.257Z,26.04
2023-04-20T09:08:54.210Z,26.00
2023-04-20T09:09:54.568Z,25.97
2023-04-20T09:10:54.173Z,25.95
2023-04-20T09:11:54.174Z,25.92
2023-04-20T09:12:54.173Z,25.92
2023-04-20T09:13:54.184Z,25.90
2023-04-20T09:14:54.592Z,25.92
2023-04-20T09:15:54.212Z,25.86
2023-04-20T09:16:54.289Z,25.88
2023-04-20T09:17:54.172Z,25.88
2023-04-20T09:18:54.127Z,25.86
2023-04-20T09:19:54.585Z,25.82
2023-04-20T09:20:54.183Z,25.80
2023-04-20T09:21:54.599Z,25.80
2023-04-20T09:22:54.243Z,25.78
2023-04-20T09:23:54.291Z,25.78
2023-04-20T09:24:54.574Z,25.79
2023-04-20T09:25:54.333Z,25.85
2023-04-20T09:26:54.345Z,25.85
2023-04-20T09:27:54.372Z,25.90
2023-04-20T09:28:54.358Z,25.95
2023-04-20T09:29:55.373Z,25.99
2023-04-20T09:30:54.388Z,26.01
2023-04-20T09:31:54.514Z,26.06
2023-04-20T09:32:55.512Z,26.08
2023-04-20T09:33:54.529Z,26.12
2023-04-20T09:34:55.094Z,26.16
2023-04-20T09:35:54.651Z,26.19
2023-04-20T09:36:54.695Z,26.23
2023-04-20T09:37:54.792Z,26.24
2023-04-20T09:38:55.092Z,26.27
2023-04-20T09:39:55.172Z,26.30
2023-04-20T09:40:54.835Z,26.34
2023-04-20T09:41:54.872Z,26.35
2023-04-20T09:42:54.911Z,26.39
2023-04-20T09:43:54.961Z,26.41
2023-04-20T09:44:55.633Z,26.42
2023-04-20T09:45:55.119Z,26.45
2023-04-20T09:46:54.998Z,26.45
2023-04-20T09:47:55.121Z,26.49
2023-04-20T09:48:55.049Z,26.48
2023-04-20T09:49:55.075Z,26.49
2023-04-20T09:50:55.117Z,26.51
2023-04-20T09:51:55.158Z,26.49
2023-04-20T09:52:55.615Z,26.55
2023-04-20T09:53:55.199Z,26.51
2023-04-20T09:54:55.203Z,26.56
2023-04-20T09:55:55.237Z,26.58
2023-04-20T09:56:55.245Z,26.56
2023-04-20T09:57:55.268Z,26.58
2023-04-20T09:58:55.293Z,26.62
2023-04-20T09:59:55.337Z,26.68
2023-04-20T10:00:55.371Z,26.66
2023-04-20T10:01:55.529Z,26.68
2023-04-20T10:02:55.576Z,26.69
2023-04-20T10:03:55.534Z,26.72
2023-04-20T10:04:55.608Z,26.73
2023-04-20T10:05:55.405Z,26.73
2023-04-20T10:06:55.459Z,26.78
2023-04-20T10:07:55.599Z,26.78
2023-04-20T10:08:55.459Z,26.79
2023-04-20T10:09:55.598Z,26.80
2023-04-20T10:10:55.490Z,26.82
2023-04-20T10:11:57.144Z,26.80
2023-04-20T10:12:55.506Z,26.82
2023-04-20T10:13:56.559Z,26.85
2023-04-20T10:14:55.602Z,26.87
2023-04-20T10:15:55.470Z,26.89
2023-04-20T10:16:55.428Z,26.87
2023-04-20T10:17:55.529Z,26.89
2023-04-20T10:18:55.511Z,26.89
2023-04-20T10:19:55.614Z,26.90
2023-04-20T10:20:55.304Z,26.90
2023-04-20T10:21:55.365Z,26.90
2023-04-20T10:22:55.301Z,26.90
2023-04-20T10:23:55.262Z,26.91
2023-04-20T10:24:55.608Z,26.91
2023-04-20T10:25:55.247Z,26.91
2023-04-20T10:26:55.222Z,26.94
2023-04-20T10:27:55.204Z,26.94
2023-04-20T10:28:55.184Z,26.91
2023-04-20T10:29:55.637Z,26.91
2023-04-20T10:30:55.251Z,26.86
2023-04-20T10:31:55.618Z,26.90
2023-04-20T10:32:55.218Z,26.89
2023-04-20T10:33:55.316Z,26.91
2023-04-20T10:34:55.190Z,26.94
2023-04-20T10:35:55.405Z,26.94
2023-04-20T10:36:55.614Z,26.94
2023-04-20T10:37:55.205Z,26.96
2023-04-20T10:38:55.211Z,26.97
2023-04-20T10:39:55.660Z,26.94
2023-04-20T10:40:55.206Z,26.96
2023-04-20T10:41:55.581Z,26.97
2023-04-20T10:42:55.573Z,27.00
2023-04-20T10:43:55.710Z,26.98
2023-04-20T10:44:56.276Z,27.01
2023-04-20T10:45:56.105Z,27.05
2023-04-20T10:46:55.183Z,27.07
2023-04-20T10:47:55.169Z,27.10
2023-04-20T10:48:55.153Z,27.11
2023-04-20T10:49:55.647Z,27.08
2023-04-20T10:50:55.133Z,27.11
2023-04-20T10:51:55.170Z,27.08
2023-04-20T10:52:55.117Z,27.07
2023-04-20T10:53:55.121Z,27.07
2023-04-20T10:54:55.118Z,27.03
2023-04-20T10:55:55.105Z,27.03
2023-04-20T10:56:55.092Z,27.03
2023-04-20T10:57:55.094Z,27.04
2023-04-20T10:58:55.095Z,27.03
2023-04-20T10:59:55.135Z,27.05
2023-04-20T11:00:55.120Z,27.07
2023-04-20T11:01:55.149Z,27.05
2023-04-20T11:02:55.124Z,27.07
2023-04-20T11:03:55.099Z,27.08
2023-04-20T11:04:55.163Z,27.11
2023-04-20T11:05:55.054Z,27.05
2023-04-20T11:06:55.061Z,27.07
2023-04-20T11:07:55.044Z,27.08
2023-04-20T11:08:55.001Z,27.07
2023-04-20T11:09:55.127Z,27.07
2023-04-20T11:10:54.983Z,27.08
2023-04-20T11:11:54.969Z,27.08
2023-04-20T11:12:54.962Z,27.07
2023-04-20T11:13:54.955Z,27.08
2023-04-20T11:14:55.124Z,27.08
2023-04-20T11:15:55.008Z,27.11
2023-04-20T11:16:54.980Z,27.08
2023-04-20T11:17:54.969Z,27.11
2023-04-20T11:18:55.072Z,27.14
2023-04-20T11:19:55.131Z,27.10
2023-04-20T11:20:54.913Z,27.14
2023-04-20T11:21:55.200Z,27.14
2023-04-20T11:22:54.970Z,27.11
2023-04-20T11:23:54.883Z,27.13
2023-04-20T11:24:54.887Z,27.11
2023-04-20T11:25:54.883Z,27.10
2023-04-20T11:26:55.166Z,27.08
2023-04-20T11:27:55.277Z,27.10
2023-04-20T11:28:56.145Z,27.05
2023-04-20T11:29:55.437Z,27.05
2023-04-20T11:30:55.131Z,27.05
2023-04-20T11:31:55.325Z,27.03
2023-04-20T11:32:55.225Z,27.00
2023-04-20T11:33:55.074Z,27.00
2023-04-20T11:35:05.537Z,27.00
2023-04-20T11:35:55.038Z,27.00
2023-04-20T11:36:55.033Z,27.00
2023-04-20T11:37:55.055Z,26.98
2023-04-20T11:38:54.965Z,26.98
2023-04-20T11:39:54.951Z,26.98
2023-04-20T11:40:54.935Z,27.00
2023-04-20T11:41:54.950Z,27.00
2023-04-20T11:42:54.897Z,26.97
2023-04-20T11:43:54.887Z,27.00
2023-04-20T11:44:54.862Z,26.98
2023-04-20T11:45:54.877Z,26.97
2023-04-20T11:46:54.845Z,26.97
2023-04-20T11:47:54.849Z,26.96
2023-04-20T11:48:54.852Z,26.97
2023-04-20T11:49:55.143Z,26.96
2023-04-20T11:50:54.781Z,26.96
2023-04-20T11:51:54.800Z,26.94
2023-04-20T11:52:55.148Z,26.91
2023-04-20T11:53:54.798Z,26.93
2023-04-20T11:54:54.724Z,26.90
2023-04-20T11:55:55.138Z,26.93
2023-04-20T11:56:54.710Z,26.91
2023-04-20T11:57:54.686Z,26.93
2023-04-20T11:58:54.676Z,26.89
2023-04-20T11:59:54.667Z,26.89
2023-04-20T12:00:55.142Z,26.89
2023-04-20T12:01:54.728Z,26.91
2023-04-20T12:02:54.825Z,26.87
2023-04-20T12:03:54.851Z,26.89
2023-04-20T12:04:54.679Z,26.89
2023-04-20T12:05:54.666Z,26.86
2023-04-20T12:06:54.549Z,26.86
2023-04-20T12:07:54.532Z,26.87
2023-04-20T12:08:55.512Z,26.87
2023-04-20T12:09:54.672Z,26.89
2023-04-20T12:10:56.672Z,26.85
2023-04-20T12:11:54.485Z,26.85
2023-04-20T12:12:54.481Z,26.85
2023-04-20T12:13:54.492Z,26.86
2023-04-20T12:14:54.643Z,26.86
2023-04-20T12:15:54.469Z,26.85
2023-04-20T12:16:55.540Z,26.85
2023-04-20T12:17:55.185Z,26.85
2023-04-20T12:18:54.370Z,26.86
2023-04-20T12:19:54.355Z,26.82
2023-04-20T12:20:54.356Z,26.82
2023-04-20T12:21:54.305Z,26.82
2023-04-20T12:22:55.587Z,26.83
2023-04-20T12:23:54.254Z,26.80
2023-04-20T12:24:54.251Z,26.82
2023-04-20T12:25:54.287Z,26.82
2023-04-20T12:26:54.224Z,26.83
2023-04-20T12:27:54.215Z,26.82
2023-04-20T12:28:54.200Z,26.85
2023-04-20T12:29:54.660Z,26.85
2023-04-20T12:30:54.183Z,26.83
2023-04-20T12:31:54.218Z,26.83
2023-04-20T12:32:54.212Z,26.85
2023-04-20T12:33:54.137Z,26.82
2023-04-20T12:34:54.174Z,26.85
2023-04-20T12:35:54.091Z,26.86
2023-04-20T12:36:54.162Z,26.78
2023-04-20T12:37:54.079Z,26.72
2023-04-20T12:38:54.064Z,26.60
2023-04-20T12:39:54.175Z,26.52
2023-04-20T12:40:54.074Z,26.37
2023-04-20T12:41:54.111Z,26.27
2023-04-20T12:42:54.036Z,26.17
2023-04-20T12:43:54.043Z,26.10
2023-04-20T12:44:54.055Z,26.00
2023-04-20T12:45:54.027Z,25.89
2023-04-20T12:46:54.071Z,25.92
2023-04-20T12:47:56.163Z,25.96
2023-04-20T12:48:54.028Z,25.96
2023-04-20T12:49:54.034Z,25.99
2023-04-20T12:50:54.020Z,26.03
2023-04-20T12:51:54.021Z,26.04
2023-04-20T12:52:54.015Z,26.07